AIC155 VIDP-EHAM
Flight info
| Callsign | AIC155 |
|---|---|
| Flight time | N/A |
| Altitude | 32000 |
| Route | DUDUM6C DUDUM Q2 ADBUK Q4 AAE L639 ISLIL/N0503F340 L639 RASKI L301 VAXIM L430 SRJ W32 ROVAD DCT IKA L125 GOLNU/N0488F360 L125 BUDED R660 DASIS UL746 ODERO L746 LUGEB DCT NETUL DCT BUXLE DCT BUDOP/N0475F380 DCT PATAK DCT ODNEM DCT ELMEK DCT VEXIL DCT KATCE DCT WRB DCT HMM/N0486F340 T281 NORKU |
| Aircraft | B77W/H-SDE1E2E3FGHIJ2J3J4J5M1RWXY/LB1D1 |
Departure
| Time | 2026-05-06 07:54 |
|---|---|
| Airport | Indira Gandhi International Airport (VIDP) |
Arrival
| Time | N/A |
|---|---|
| Airport | Amsterdam Airport Schiphol (EHAM) |
| Time | Latitude | Longitude | Altitude | Speed | Heading |
|---|---|---|---|---|---|
| 2026-05-06 07:16 | 28.55245 | 77.08230 | 778 ft | 0 kts | 147° |
| 2026-05-06 07:39 | 28.55248 | 77.08227 | 778 ft | 3 kts | 147° |
| 2026-05-06 07:39 | 28.55271 | 77.08213 | 778 ft | 4 kts | 158° |
| 2026-05-06 07:40 | 28.55296 | 77.08204 | 778 ft | 4 kts | 174° |
| 2026-05-06 07:40 | 28.55320 | 77.08205 | 778 ft | 4 kts | 201° |
| 2026-05-06 07:40 | 28.55336 | 77.08217 | 778 ft | 3 kts | 238° |
| 2026-05-06 07:40 | 28.55338 | 77.08220 | 778 ft | 0 kts | 241° |
| 2026-05-06 07:44 | 28.55329 | 77.08202 | 778 ft | 7 kts | 241° |
| 2026-05-06 07:44 | 28.55289 | 77.08122 | 778 ft | 14 kts | 239° |
| 2026-05-06 07:44 | 28.55239 | 77.08027 | 778 ft | 14 kts | 239° |
| 2026-05-06 07:44 | 28.55188 | 77.07932 | 777 ft | 14 kts | 230° |
| 2026-05-06 07:45 | 28.55108 | 77.07905 | 777 ft | 9 kts | 161° |
| 2026-05-06 07:45 | 28.55082 | 77.07965 | 777 ft | 9 kts | 104° |
| 2026-05-06 07:45 | 28.55065 | 77.08041 | 777 ft | 12 kts | 104° |
| 2026-05-06 07:45 | 28.55038 | 77.08161 | 777 ft | 19 kts | 104° |
| 2026-05-06 07:46 | 28.55000 | 77.08323 | 777 ft | 22 kts | 105° |
| 2026-05-06 07:46 | 28.54960 | 77.08493 | 777 ft | 22 kts | 105° |
| 2026-05-06 07:46 | 28.54921 | 77.08662 | 776 ft | 22 kts | 105° |
| 2026-05-06 07:46 | 28.54881 | 77.08832 | 777 ft | 22 kts | 104° |
| 2026-05-06 07:47 | 28.54844 | 77.09001 | 777 ft | 22 kts | 105° |
| 2026-05-06 07:47 | 28.54803 | 77.09171 | 777 ft | 22 kts | 105° |
| 2026-05-06 07:47 | 28.54764 | 77.09340 | 777 ft | 22 kts | 104° |
| 2026-05-06 07:47 | 28.54727 | 77.09508 | 777 ft | 22 kts | 104° |
| 2026-05-06 07:48 | 28.54688 | 77.09678 | 777 ft | 22 kts | 104° |
| 2026-05-06 07:48 | 28.54640 | 77.09800 | 776 ft | 11 kts | 149° |
| 2026-05-06 07:48 | 28.54582 | 77.09810 | 775 ft | 8 kts | 157° |
| 2026-05-06 07:48 | 28.54551 | 77.09868 | 775 ft | 9 kts | 106° |
| 2026-05-06 07:49 | 28.54534 | 77.09942 | 775 ft | 11 kts | 104° |
| 2026-05-06 07:49 | 28.54511 | 77.10048 | 775 ft | 16 kts | 104° |
| 2026-05-06 07:49 | 28.54482 | 77.10173 | 775 ft | 16 kts | 104° |
| 2026-05-06 07:49 | 28.54454 | 77.10298 | 776 ft | 16 kts | 104° |
| 2026-05-06 07:50 | 28.54423 | 77.10423 | 776 ft | 16 kts | 106° |
| 2026-05-06 07:50 | 28.54395 | 77.10549 | 775 ft | 16 kts | 103° |
| 2026-05-06 07:50 | 28.54370 | 77.10675 | 775 ft | 16 kts | 103° |
| 2026-05-06 07:50 | 28.54345 | 77.10801 | 775 ft | 16 kts | 102° |
| 2026-05-06 07:51 | 28.54320 | 77.10926 | 776 ft | 16 kts | 102° |
| 2026-05-06 07:51 | 28.54290 | 77.11056 | 775 ft | 17 kts | 106° |
| 2026-05-06 07:51 | 28.54247 | 77.11153 | 774 ft | 8 kts | 158° |
| 2026-05-06 07:51 | 28.54190 | 77.11146 | 771 ft | 10 kts | 193° |
| 2026-05-06 07:52 | 28.54106 | 77.11124 | 760 ft | 14 kts | 193° |
| 2026-05-06 07:52 | 28.54080 | 77.11074 | 756 ft | 7 kts | 289° |
| 2026-05-06 07:52 | 28.54092 | 77.11038 | 761 ft | 7 kts | 291° |
| 2026-05-06 07:52 | 28.54103 | 77.10996 | 758 ft | 0 kts | 283° |
| 2026-05-06 07:53 | 28.54104 | 77.10991 | 758 ft | 6 kts | 283° |
| 2026-05-06 07:53 | 28.54176 | 77.10663 | 768 ft | 70 kts | 284° |
| 2026-05-06 07:53 | 28.54276 | 77.10204 | 768 ft | 109 kts | 284° |
| 2026-05-06 07:53 | 28.54595 | 77.08761 | 767 ft | 171 kts | 284° |
| 2026-05-06 07:54 | 28.54806 | 77.07807 | 770 ft | 195 kts | 284° |
| 2026-05-06 07:54 | 28.55147 | 77.06309 | 1112 ft | 198 kts | 285° |
| 2026-05-06 07:54 | 28.55491 | 77.04781 | 1590 ft | 199 kts | 285° |
| 2026-05-06 07:54 | 28.55787 | 77.03226 | 1977 ft | 204 kts | 269° |
| 2026-05-06 07:55 | 28.54905 | 77.01391 | 2342 ft | 209 kts | 208° |
| 2026-05-06 07:55 | 28.53987 | 77.00999 | 2445 ft | 217 kts | 194° |
| 2026-05-06 07:55 | 28.52468 | 77.00554 | 2617 ft | 234 kts | 195° |
| 2026-05-06 07:55 | 28.50821 | 77.00052 | 2766 ft | 255 kts | 195° |
| 2026-05-06 07:56 | 28.49066 | 76.99509 | 3147 ft | 267 kts | 195° |
| 2026-05-06 07:56 | 28.47249 | 76.98940 | 3675 ft | 273 kts | 196° |
| 2026-05-06 07:56 | 28.45407 | 76.98356 | 4303 ft | 276 kts | 196° |
| 2026-05-06 07:56 | 28.43561 | 76.97764 | 4953 ft | 277 kts | 196° |
| 2026-05-06 07:57 | 28.41713 | 76.97169 | 5569 ft | 279 kts | 197° |
| 2026-05-06 07:57 | 28.39838 | 76.96561 | 6190 ft | 281 kts | 197° |
| 2026-05-06 07:57 | 28.37927 | 76.95940 | 6780 ft | 284 kts | 197° |
| 2026-05-06 07:57 | 28.36036 | 76.95325 | 7314 ft | 288 kts | 198° |
| 2026-05-06 07:58 | 28.34095 | 76.94693 | 7837 ft | 292 kts | 198° |
| 2026-05-06 07:58 | 28.32121 | 76.94049 | 8387 ft | 296 kts | 199° |
| 2026-05-06 07:58 | 28.30131 | 76.93401 | 8931 ft | 300 kts | 199° |
| 2026-05-06 07:58 | 28.28114 | 76.92744 | 9472 ft | 304 kts | 200° |
| 2026-05-06 07:59 | 28.26066 | 76.92077 | 9987 ft | 308 kts | 200° |
| 2026-05-06 07:59 | 28.24076 | 76.91179 | 10200 ft | 312 kts | 218° |
| 2026-05-06 07:59 | 28.22304 | 76.89667 | 10332 ft | 326 kts | 223° |
| 2026-05-06 07:59 | 28.20519 | 76.88034 | 10484 ft | 345 kts | 223° |
| 2026-05-06 08:00 | 28.18586 | 76.86270 | 10636 ft | 365 kts | 223° |
| 2026-05-06 08:00 | 28.16553 | 76.84432 | 10910 ft | 380 kts | 222° |
| 2026-05-06 08:00 | 28.14457 | 76.82558 | 11395 ft | 388 kts | 222° |
| 2026-05-06 08:00 | 28.12310 | 76.80654 | 12031 ft | 394 kts | 222° |
| 2026-05-06 08:01 | 28.10138 | 76.78737 | 12779 ft | 397 kts | 222° |
| 2026-05-06 08:01 | 28.07947 | 76.76809 | 13498 ft | 401 kts | 222° |
| 2026-05-06 08:01 | 28.05733 | 76.74862 | 14121 ft | 406 kts | 222° |
| 2026-05-06 08:01 | 28.03494 | 76.72894 | 14779 ft | 409 kts | 222° |
| 2026-05-06 08:02 | 28.01238 | 76.70914 | 15471 ft | 411 kts | 222° |
| 2026-05-06 08:02 | 27.98967 | 76.68920 | 16157 ft | 414 kts | 222° |
| 2026-05-06 08:02 | 27.96678 | 76.66911 | 16842 ft | 417 kts | 222° |
| 2026-05-06 08:02 | 27.94368 | 76.64884 | 17494 ft | 421 kts | 222° |
| 2026-05-06 08:03 | 27.92078 | 76.62876 | 18154 ft | 424 kts | 221° |
| 2026-05-06 08:03 | 27.89706 | 76.60796 | 18722 ft | 428 kts | 222° |
| 2026-05-06 08:03 | 27.87384 | 76.58761 | 19254 ft | 431 kts | 222° |
| 2026-05-06 08:03 | 27.85000 | 76.56674 | 19800 ft | 435 kts | 222° |
| 2026-05-06 08:04 | 27.82598 | 76.54572 | 20349 ft | 439 kts | 223° |
| 2026-05-06 08:04 | 27.80161 | 76.52442 | 20889 ft | 443 kts | 222° |
| 2026-05-06 08:04 | 27.77649 | 76.50378 | 21400 ft | 449 kts | 220° |
| 2026-05-06 08:04 | 27.75042 | 76.48404 | 21911 ft | 454 kts | 218° |
| 2026-05-06 08:05 | 27.72382 | 76.46446 | 22426 ft | 457 kts | 218° |
| 2026-05-06 08:05 | 27.69732 | 76.44495 | 22898 ft | 461 kts | 219° |
| 2026-05-06 08:05 | 27.67043 | 76.42498 | 23398 ft | 464 kts | 219° |
| 2026-05-06 08:05 | 27.64341 | 76.40473 | 23820 ft | 467 kts | 219° |
| 2026-05-06 08:06 | 27.61629 | 76.38431 | 24247 ft | 469 kts | 219° |
| 2026-05-06 08:06 | 27.58912 | 76.36380 | 24705 ft | 471 kts | 219° |
| 2026-05-06 08:06 | 27.56185 | 76.34328 | 25162 ft | 472 kts | 219° |
| 2026-05-06 08:06 | 27.53450 | 76.32270 | 25577 ft | 474 kts | 220° |
| 2026-05-06 08:07 | 27.50692 | 76.30210 | 25982 ft | 477 kts | 218° |
| 2026-05-06 08:07 | 27.47863 | 76.28216 | 26378 ft | 480 kts | 217° |
| 2026-05-06 08:07 | 27.45000 | 76.26268 | 26688 ft | 482 kts | 217° |
| 2026-05-06 08:07 | 27.42109 | 76.24329 | 27064 ft | 484 kts | 217° |
| 2026-05-06 08:08 | 27.39203 | 76.22374 | 27443 ft | 486 kts | 217° |
| 2026-05-06 08:08 | 27.36305 | 76.20409 | 27808 ft | 488 kts | 217° |